createdAt,value
2022-09-27T00:00:06.989Z,1.88
2022-09-27T00:02:38.411Z,2.10
2022-09-27T00:05:05.026Z,1.98
2022-09-27T00:07:31.437Z,1.90
2022-09-27T00:09:57.807Z,2.15
2022-09-27T00:12:24.651Z,2.55
2022-09-27T00:14:51.050Z,2.13
2022-09-27T00:17:17.450Z,1.88
2022-09-27T00:19:43.849Z,2.25
2022-09-27T00:22:10.250Z,2.20
2022-09-27T00:24:36.610Z,2.63
2022-09-27T00:27:03.005Z,1.63
2022-09-27T00:29:29.459Z,2.00
2022-09-27T00:31:56.259Z,2.20
2022-09-27T00:34:24.836Z,2.15
2022-09-27T00:36:52.186Z,2.30
2022-09-27T00:39:19.054Z,2.05
2022-09-27T00:41:45.861Z,1.83
2022-09-27T00:44:33.688Z,1.95
2022-09-27T00:47:04.019Z,2.35
2022-09-27T00:49:35.709Z,2.10
2022-09-27T00:52:05.459Z,2.03
2022-09-27T00:54:35.694Z,2.33
2022-09-27T00:57:03.421Z,1.70
2022-09-27T00:59:35.769Z,2.08
2022-09-27T01:02:05.153Z,2.05
2022-09-27T01:04:32.720Z,2.13
2022-09-27T01:06:59.850Z,2.15
2022-09-27T01:09:26.954Z,1.70
2022-09-27T01:12:22.948Z,2.17
2022-09-27T01:15:16.979Z,1.90
2022-09-27T01:18:00.865Z,2.10
2022-09-27T01:21:09.588Z,1.50
2022-09-27T01:23:54.140Z,1.80
2022-09-27T01:26:46.029Z,2.00
2022-09-27T01:29:44.240Z,1.95
2022-09-27T01:32:22.927Z,1.45
2022-09-27T01:35:01.623Z,1.70
2022-09-27T01:37:53.396Z,1.70
2022-09-27T01:40:28.671Z,1.88
2022-09-27T01:43:29.639Z,1.50
2022-09-27T01:46:08.008Z,2.10
2022-09-27T01:48:58.326Z,1.88
2022-09-27T01:51:37.468Z,1.90
2022-09-27T01:54:07.560Z,1.90
2022-09-27T01:57:01.180Z,1.60
2022-09-27T01:59:41.848Z,1.70
2022-09-27T02:02:26.822Z,2.07
2022-09-27T02:05:26.922Z,2.00
2022-09-27T02:08:01.985Z,1.20
2022-09-27T02:10:40.661Z,1.42
2022-09-27T02:13:21.102Z,2.15
2022-09-27T02:16:32.129Z,1.50
2022-09-27T02:19:10.320Z,1.95
2022-09-27T02:21:59.800Z,1.60
2022-09-27T02:24:38.614Z,1.60
2022-09-27T02:27:21.265Z,1.60
2022-09-27T02:29:56.495Z,1.40
2022-09-27T02:32:22.924Z,1.50
2022-09-27T02:34:50.711Z,1.80
2022-09-27T02:37:17.769Z,1.40
2022-09-27T02:39:44.311Z,1.65
2022-09-27T02:42:10.954Z,1.85
2022-09-27T02:44:39.504Z,1.58
2022-09-27T02:47:36.471Z,1.58
2022-09-27T02:50:49.358Z,1.50
2022-09-27T02:53:36.579Z,1.63
2022-09-27T02:56:47.499Z,1.75
2022-09-27T03:00:00.476Z,1.60
2022-09-27T03:02:53.272Z,1.60
2022-09-27T03:05:48.415Z,1.98
2022-09-27T03:08:16.661Z,1.80
2022-09-27T03:10:43.083Z,1.70
2022-09-27T03:13:09.684Z,1.90
2022-09-27T03:15:36.091Z,1.58
2022-09-27T03:18:03.040Z,1.80
2022-09-27T03:20:41.479Z,1.70
2022-09-27T03:23:10.010Z,1.75
2022-09-27T03:25:36.399Z,1.67
2022-09-27T03:28:03.693Z,1.60
2022-09-27T03:30:30.725Z,1.42
2022-09-27T03:32:57.953Z,1.80
2022-09-27T03:35:44.953Z,1.90
2022-09-27T03:38:12.665Z,1.80
2022-09-27T03:40:39.720Z,2.00
2022-09-27T03:43:07.343Z,1.90
2022-09-27T03:45:33.952Z,2.10
2022-09-27T03:48:04.503Z,1.77
2022-09-27T03:50:30.948Z,2.45
2022-09-27T03:52:57.350Z,1.83
2022-09-27T03:55:24.594Z,2.33
2022-09-27T03:57:51.040Z,2.20
2022-09-27T04:00:18.487Z,2.42
2022-09-27T04:02:45.405Z,1.95
2022-09-27T04:05:25.620Z,2.08
2022-09-27T04:08:10.910Z,2.20
2022-09-27T04:10:38.079Z,2.20
2022-09-27T04:13:05.408Z,2.15
2022-09-27T04:15:39.417Z,2.60
2022-09-27T04:18:24.167Z,2.17
2022-09-27T04:21:18.070Z,2.42
2022-09-27T04:23:50.064Z,2.58
2022-09-27T04:26:21.016Z,2.50
2022-09-27T04:28:54.567Z,2.63
2022-09-27T04:31:21.393Z,2.20
2022-09-27T04:33:59.793Z,2.70
2022-09-27T04:36:31.785Z,2.35
2022-09-27T04:39:05.989Z,2.50
2022-09-27T04:41:35.999Z,2.40
2022-09-27T04:44:03.273Z,2.33
2022-09-27T04:46:34.615Z,2.50
2022-09-27T04:49:02.182Z,2.60
2022-09-27T04:51:30.496Z,2.65
2022-09-27T04:53:58.110Z,2.47
2022-09-27T04:56:30.904Z,2.50
2022-09-27T04:58:58.731Z,2.75
2022-09-27T05:01:25.251Z,2.58
2022-09-27T05:04:10.223Z,2.85
2022-09-27T05:06:39.506Z,2.85
2022-09-27T05:09:15.520Z,2.78
2022-09-27T05:11:48.755Z,2.60
2022-09-27T05:14:33.620Z,2.33
2022-09-27T05:17:15.148Z,2.35
2022-09-27T05:20:14.087Z,2.67
2022-09-27T05:22:51.839Z,3.17
2022-09-27T05:25:18.598Z,2.60
2022-09-27T05:27:45.368Z,2.97
2022-09-27T05:30:12.704Z,3.00
2022-09-27T05:32:50.018Z,3.00
2022-09-27T05:35:26.154Z,3.10
2022-09-27T05:37:54.659Z,3.13
2022-09-27T05:40:40.092Z,2.60
2022-09-27T05:43:07.071Z,3.17
2022-09-27T05:45:34.069Z,2.58
2022-09-27T05:48:03.235Z,2.88
2022-09-27T05:50:31.419Z,3.00
2022-09-27T05:52:57.917Z,2.80
2022-09-27T05:55:24.346Z,2.60
2022-09-27T05:58:00.479Z,3.40
2022-09-27T06:00:38.579Z,3.08
2022-09-27T06:03:19.620Z,2.92
2022-09-27T06:06:11.887Z,3.15
2022-09-27T06:08:45.763Z,3.72
2022-09-27T06:11:15.677Z,3.45
2022-09-27T06:13:42.319Z,3.20
2022-09-27T06:16:11.980Z,2.70
2022-09-27T06:18:40.463Z,3.73
2022-09-27T06:21:06.942Z,3.40
2022-09-27T06:23:34.358Z,2.95
2022-09-27T06:26:09.935Z,3.05
2022-09-27T06:28:41.111Z,3.08
2022-09-27T06:31:08.988Z,2.80
2022-09-27T06:33:46.135Z,2.88
2022-09-27T06:36:13.570Z,2.42
2022-09-27T06:38:41.095Z,2.70
2022-09-27T06:41:37.398Z,3.47
2022-09-27T06:44:29.966Z,3.10
2022-09-27T06:47:17.273Z,3.25
2022-09-27T06:49:53.146Z,2.90
2022-09-27T06:52:19.569Z,3.63
2022-09-27T06:54:46.732Z,3.10
2022-09-27T06:57:33.119Z,3.63
2022-09-27T07:00:18.266Z,3.42
2022-09-27T07:03:03.178Z,3.20
2022-09-27T07:05:57.199Z,2.67
2022-09-27T07:08:39.986Z,2.75
2022-09-27T07:11:07.522Z,2.63
2022-09-27T07:13:37.155Z,2.97
2022-09-27T07:16:03.644Z,3.25
2022-09-27T07:18:30.341Z,3.40
2022-09-27T07:21:00.735Z,2.80
2022-09-27T07:23:27.475Z,3.13
2022-09-27T07:25:54.756Z,2.47
2022-09-27T07:28:22.401Z,2.88
2022-09-27T07:30:49.845Z,2.72
2022-09-27T07:33:16.325Z,2.50
2022-09-27T07:35:43.745Z,2.88
2022-09-27T07:38:13.179Z,2.90
2022-09-27T07:40:40.792Z,3.40
2022-09-27T07:43:09.371Z,2.53
2022-09-27T07:45:36.771Z,2.63
2022-09-27T07:48:07.346Z,2.35
2022-09-27T07:50:53.131Z,2.70
2022-09-27T07:53:38.850Z,2.22
2022-09-27T07:58:57.269Z,2.30
2022-09-27T08:01:23.799Z,2.38
2022-09-27T08:03:51.664Z,2.53
2022-09-27T08:06:19.084Z,2.42
2022-09-27T08:08:47.366Z,2.45
2022-09-27T08:11:15.499Z,2.47
2022-09-27T08:13:43.347Z,2.05
2022-09-27T08:16:11.209Z,2.90
2022-09-27T08:19:06.463Z,2.30
2022-09-27T08:21:58.733Z,2.85
2022-09-27T08:24:29.240Z,2.38
2022-09-27T08:27:11.493Z,2.60
2022-09-27T08:29:50.661Z,2.80
2022-09-27T08:32:22.166Z,2.45
2022-09-27T08:34:49.372Z,1.95
2022-09-27T08:37:15.847Z,2.72
2022-09-27T08:39:46.868Z,2.22
2022-09-27T08:42:46.579Z,2.03
2022-09-27T08:45:22.605Z,2.40
2022-09-27T08:47:55.068Z,2.92
2022-09-27T08:50:39.993Z,2.05
2022-09-27T08:53:23.538Z,2.50
2022-09-27T08:55:56.783Z,2.63
2022-09-27T08:58:39.366Z,2.50
2022-09-27T09:01:15.846Z,3.13
2022-09-27T09:03:55.537Z,3.53
2022-09-27T09:06:34.650Z,3.10
2022-09-27T09:09:20.367Z,3.08
2022-09-27T09:12:56.987Z,2.20
2022-09-27T09:15:58.096Z,2.70
2022-09-27T09:19:01.231Z,2.67
2022-09-27T09:22:11.502Z,2.70
2022-09-27T09:25:15.452Z,2.55
2022-09-27T09:28:04.323Z,2.45
2022-09-27T09:30:44.365Z,2.42
2022-09-27T09:33:31.988Z,2.92
2022-09-27T09:36:05.276Z,2.72
2022-09-27T09:38:34.696Z,3.03
2022-09-27T09:41:26.126Z,2.85
2022-09-27T09:44:07.821Z,2.92
2022-09-27T09:46:45.938Z,2.83
2022-09-27T09:49:24.211Z,3.10
2022-09-27T09:51:59.732Z,2.92
2022-09-27T09:54:34.968Z,3.00
2022-09-27T09:57:10.557Z,2.80
2022-09-27T09:59:45.286Z,2.80
2022-09-27T10:02:37.211Z,2.60
2022-09-27T10:05:19.902Z,3.55
2022-09-27T10:07:50.692Z,2.92
2022-09-27T10:10:20.099Z,2.50
2022-09-27T10:13:22.526Z,2.63
2022-09-27T10:16:02.442Z,2.30
2022-09-27T10:18:29.682Z,2.70
2022-09-27T10:21:00.000Z,2.60
2022-09-27T10:23:26.548Z,2.40
2022-09-27T10:26:11.069Z,3.00
2022-09-27T10:28:47.363Z,2.67
2022-09-27T10:31:20.346Z,2.63
2022-09-27T10:34:34.377Z,2.55
2022-09-27T10:37:06.705Z,2.50
2022-09-27T10:39:33.966Z,2.47
2022-09-27T10:42:00.512Z,2.38
2022-09-27T10:44:40.004Z,1.90
2022-09-27T10:47:22.879Z,2.30
2022-09-27T10:50:03.635Z,2.00
2022-09-27T10:52:42.890Z,2.10
2022-09-27T10:55:24.269Z,2.38
2022-09-27T10:57:55.095Z,2.13
2022-09-27T11:00:25.831Z,2.10
2022-09-27T11:03:03.177Z,2.10
2022-09-27T11:05:39.463Z,2.13
2022-09-27T11:08:18.218Z,2.42
2022-09-27T11:11:06.883Z,1.83
2022-09-27T11:13:36.290Z,2.30
2022-09-27T11:16:21.105Z,1.80
2022-09-27T11:19:21.865Z,1.73
2022-09-27T11:24:37.848Z,1.13
2022-09-27T11:27:26.300Z,1.05
2022-09-27T11:30:04.919Z,1.50
2022-09-27T11:33:05.366Z,1.70
2022-09-27T11:35:58.942Z,1.48
2022-09-27T11:38:58.162Z,1.52
2022-09-27T11:41:55.903Z,2.88
2022-09-27T11:44:46.250Z,1.90
2022-09-27T11:47:20.397Z,2.00
2022-09-27T11:50:19.279Z,1.65
2022-09-27T11:53:17.983Z,1.92
2022-09-27T11:56:05.577Z,2.10
2022-09-27T11:59:05.118Z,2.10
2022-09-27T12:01:57.224Z,2.63
2022-09-27T12:05:20.495Z,2.83
2022-09-27T12:08:18.135Z,2.33
2022-09-27T12:10:50.736Z,2.55
2022-09-27T12:13:25.524Z,3.03
2022-09-27T12:15:52.341Z,2.50
2022-09-27T12:18:37.995Z,3.00
2022-09-27T12:21:10.340Z,3.15
2022-09-27T12:23:42.175Z,3.60
2022-09-27T12:26:37.500Z,3.37
2022-09-27T12:29:30.414Z,3.53
2022-09-27T12:32:22.363Z,4.07
2022-09-27T12:35:18.638Z,3.72
2022-09-27T12:37:57.707Z,2.80
2022-09-27T12:40:35.045Z,3.60
2022-09-27T12:43:16.812Z,2.70
2022-09-27T12:46:40.419Z,3.35
2022-09-27T12:49:38.491Z,2.75
2022-09-27T12:52:11.937Z,2.38
2022-09-27T12:55:05.087Z,2.63
2022-09-27T12:57:51.746Z,2.90
2022-09-27T13:00:25.876Z,2.47
2022-09-27T13:03:26.528Z,2.53
2022-09-27T13:06:31.741Z,2.17
2022-09-27T13:09:25.257Z,2.22
2022-09-27T13:12:03.956Z,2.60
2022-09-27T13:14:35.581Z,1.90
2022-09-27T13:17:02.120Z,1.85
2022-09-27T13:19:42.599Z,1.92
2022-09-27T13:22:36.612Z,1.95
2022-09-27T13:25:51.789Z,2.28
2022-09-27T13:28:29.266Z,2.00
2022-09-27T13:30:58.451Z,1.63
2022-09-27T13:33:49.705Z,1.92
2022-09-27T13:36:24.501Z,2.05
2022-09-27T13:39:04.374Z,1.73
2022-09-27T13:41:44.581Z,2.25
2022-09-27T13:44:38.878Z,2.80
2022-09-27T13:47:26.090Z,2.30
2022-09-27T13:50:12.698Z,2.22
2022-09-27T13:52:58.725Z,2.42
2022-09-27T13:55:47.670Z,2.92
2022-09-27T13:58:33.956Z,2.55
2022-09-27T14:01:26.069Z,2.60
2022-09-27T14:03:55.823Z,2.35
2022-09-27T14:06:30.386Z,2.33
2022-09-27T14:09:01.594Z,2.40
2022-09-27T14:11:33.586Z,2.15
2022-09-27T14:14:02.143Z,2.30
2022-09-27T14:16:40.622Z,2.50
2022-09-27T14:19:16.233Z,2.90
2022-09-27T14:21:43.933Z,2.58
2022-09-27T14:24:23.669Z,2.97
2022-09-27T14:27:02.908Z,2.92
2022-09-27T14:29:32.606Z,2.25
2022-09-27T14:32:13.734Z,1.85
2022-09-27T14:35:34.958Z,2.55
2022-09-27T14:38:20.791Z,3.08
2022-09-27T14:40:59.707Z,3.22
2022-09-27T14:43:27.268Z,3.42
2022-09-27T14:45:59.706Z,3.53
2022-09-27T14:48:35.702Z,4.43
2022-09-27T14:51:15.083Z,3.22
2022-09-27T14:54:05.506Z,4.07
2022-09-27T14:56:34.857Z,3.50
2022-09-27T14:59:06.513Z,4.07
2022-09-27T15:01:35.024Z,4.20
2022-09-27T15:04:13.585Z,4.07
2022-09-27T15:06:40.787Z,3.85
2022-09-27T15:09:10.112Z,3.88
2022-09-27T15:11:37.211Z,4.00
2022-09-27T15:14:04.993Z,3.65
2022-09-27T15:16:31.768Z,2.90
2022-09-27T15:19:05.630Z,3.95
2022-09-27T15:21:35.014Z,3.15
2022-09-27T15:24:02.725Z,4.00
2022-09-27T15:26:44.308Z,3.83
2022-09-27T15:29:22.664Z,3.38
2022-09-27T15:32:06.841Z,4.32
2022-09-27T15:34:34.719Z,4.80
2022-09-27T15:37:06.553Z,4.78
2022-09-27T15:39:36.219Z,3.53
2022-09-27T15:42:12.571Z,3.30
2022-09-27T15:44:55.847Z,2.65
2022-09-27T15:47:34.521Z,3.20
2022-09-27T15:50:26.939Z,1.90
2022-09-27T15:52:57.111Z,2.00
2022-09-27T15:55:26.636Z,2.07
2022-09-27T15:57:59.340Z,1.55
2022-09-27T16:00:26.593Z,2.05
2022-09-27T16:02:53.942Z,2.03
2022-09-27T16:05:20.703Z,1.67
2022-09-27T16:07:47.091Z,1.50
2022-09-27T16:10:18.911Z,1.80
2022-09-27T16:12:45.772Z,2.08
2022-09-27T16:15:14.219Z,2.10
2022-09-27T16:17:42.632Z,1.95
2022-09-27T16:20:19.572Z,1.88
2022-09-27T16:22:45.986Z,1.90
2022-09-27T16:25:12.692Z,2.13
2022-09-27T16:27:39.304Z,2.15
2022-09-27T16:30:06.206Z,2.35
2022-09-27T16:32:32.700Z,2.53
2022-09-27T16:34:59.138Z,2.55
2022-09-27T16:37:25.702Z,3.17
2022-09-27T16:39:52.079Z,2.70
2022-09-27T16:42:18.462Z,2.55
2022-09-27T16:44:44.839Z,2.00
2022-09-27T16:47:11.288Z,2.25
2022-09-27T16:49:56.275Z,2.17
2022-09-27T16:52:22.649Z,1.67
2022-09-27T16:54:49.010Z,1.95
2022-09-27T16:57:15.384Z,1.70
2022-09-27T16:59:41.778Z,1.60
2022-09-27T17:02:09.437Z,2.00
2022-09-27T17:04:35.886Z,2.00
2022-09-27T17:07:02.258Z,2.70
2022-09-27T17:09:28.655Z,3.33
2022-09-27T17:11:56.265Z,8.43
2022-09-27T17:14:22.664Z,2.85
2022-09-27T17:16:49.396Z,2.97
2022-09-27T17:19:18.182Z,3.40
2022-09-27T17:21:45.142Z,2.63
2022-09-27T17:24:11.789Z,2.25
2022-09-27T17:26:38.320Z,3.13
2022-09-27T17:29:04.711Z,4.50
2022-09-27T17:31:33.380Z,4.40
2022-09-27T17:34:00.615Z,3.42
2022-09-27T17:36:29.955Z,2.97
2022-09-27T17:38:58.585Z,3.25
2022-09-27T17:41:26.480Z,2.95
2022-09-27T17:43:55.166Z,6.30
2022-09-27T17:46:23.553Z,4.68
2022-09-27T17:49:09.174Z,4.93
2022-09-27T17:51:38.593Z,4.15
2022-09-27T17:54:07.275Z,4.47
2022-09-27T17:56:37.577Z,7.03
2022-09-27T17:59:04.670Z,5.38
2022-09-27T18:01:31.282Z,3.90
2022-09-27T18:04:00.538Z,3.80
2022-09-27T18:06:28.321Z,3.42
2022-09-27T18:08:55.874Z,4.72
2022-09-27T18:11:28.376Z,4.57
2022-09-27T18:14:02.289Z,4.00
2022-09-27T18:16:32.330Z,3.60
2022-09-27T18:19:00.358Z,3.73
2022-09-27T18:21:27.921Z,3.50
2022-09-27T18:23:59.561Z,3.20
2022-09-27T18:26:28.888Z,3.72
2022-09-27T18:28:59.785Z,3.97
2022-09-27T18:31:26.268Z,3.85
2022-09-27T18:33:52.994Z,3.90
2022-09-27T18:36:22.010Z,4.75
2022-09-27T18:38:53.958Z,3.65
2022-09-27T18:41:22.011Z,3.60
2022-09-27T18:43:48.722Z,3.10
2022-09-27T18:46:35.206Z,3.08
2022-09-27T18:49:03.991Z,2.80
2022-09-27T18:51:30.908Z,3.10
2022-09-27T18:54:00.315Z,3.80
2022-09-27T18:56:27.591Z,3.33
2022-09-27T18:58:54.324Z,2.65
2022-09-27T19:01:22.138Z,3.13
2022-09-27T19:03:48.808Z,3.83
2022-09-27T19:06:23.332Z,3.45
2022-09-27T19:08:58.584Z,2.97
2022-09-27T19:11:26.711Z,2.67
2022-09-27T19:13:55.243Z,3.53
2022-09-27T19:16:22.917Z,2.80
2022-09-27T19:18:49.835Z,2.25
2022-09-27T19:21:19.627Z,4.13
2022-09-27T19:23:46.232Z,6.05
2022-09-27T19:26:15.440Z,2.83
2022-09-27T19:28:43.531Z,3.17
2022-09-27T19:31:16.572Z,3.30
2022-09-27T19:33:43.705Z,3.53
2022-09-27T19:36:12.837Z,3.13
2022-09-27T19:38:39.419Z,2.90
2022-09-27T19:41:07.961Z,2.80
2022-09-27T19:43:34.647Z,2.58
2022-09-27T19:46:05.819Z,2.25
2022-09-27T19:48:32.690Z,2.13
2022-09-27T19:51:00.360Z,2.28
2022-09-27T19:53:31.885Z,2.10
2022-09-27T19:56:04.370Z,2.40
2022-09-27T19:58:31.870Z,2.13
2022-09-27T20:01:03.579Z,2.65
2022-09-27T20:03:30.332Z,3.15
2022-09-27T20:05:58.638Z,2.63
2022-09-27T20:08:26.575Z,1.90
2022-09-27T20:11:06.150Z,2.10
2022-09-27T20:13:34.299Z,2.00
2022-09-27T20:16:03.472Z,1.80
2022-09-27T20:18:30.272Z,1.83
2022-09-27T20:21:02.080Z,1.83
2022-09-27T20:23:29.842Z,1.55
2022-09-27T20:26:04.004Z,1.63
2022-09-27T20:28:30.445Z,1.45
2022-09-27T20:31:01.828Z,1.55
2022-09-27T20:33:46.739Z,1.50
2022-09-27T20:36:20.668Z,1.45
2022-09-27T20:39:02.846Z,1.38
2022-09-27T20:41:32.115Z,1.38
2022-09-27T20:44:01.684Z,1.33
2022-09-27T20:46:28.123Z,1.65
2022-09-27T20:48:57.034Z,1.65
2022-09-27T20:51:24.097Z,1.70
2022-09-27T20:53:51.474Z,1.88
2022-09-27T20:56:35.488Z,1.38
2022-09-27T20:59:05.837Z,1.92
2022-09-27T21:01:33.069Z,1.90
2022-09-27T21:04:01.602Z,1.38
2022-09-27T21:06:30.333Z,1.70
2022-09-27T21:08:57.961Z,1.70
2022-09-27T21:11:25.441Z,1.83
2022-09-27T21:13:53.328Z,1.30
2022-09-27T21:16:21.954Z,1.60
2022-09-27T21:18:50.840Z,1.50
2022-09-27T21:21:18.122Z,1.75
2022-09-27T21:23:45.909Z,1.50
2022-09-27T21:26:17.444Z,1.48
2022-09-27T21:28:48.838Z,1.45
2022-09-27T21:31:22.265Z,1.50
2022-09-27T21:33:54.029Z,1.40
2022-09-27T21:36:24.706Z,1.30
2022-09-27T21:38:51.166Z,1.40
2022-09-27T21:41:18.277Z,1.48
2022-09-27T21:43:46.809Z,1.52
2022-09-27T21:46:17.513Z,1.38
2022-09-27T21:48:46.216Z,1.90
2022-09-27T21:51:14.122Z,1.50
2022-09-27T21:53:42.522Z,1.85
2022-09-27T21:56:10.599Z,1.27
2022-09-27T21:58:39.826Z,1.70
2022-09-27T22:01:18.335Z,1.58
2022-09-27T22:03:46.509Z,1.80
2022-09-27T22:06:15.587Z,1.70
2022-09-27T22:08:42.672Z,1.50
2022-09-27T22:11:12.421Z,1.50
2022-09-27T22:13:38.843Z,1.60
2022-09-27T22:16:07.337Z,1.58
2022-09-27T22:18:35.329Z,1.70
2022-09-27T22:21:13.323Z,2.08
2022-09-27T22:23:40.061Z,1.80
2022-09-27T22:26:20.885Z,2.10
2022-09-27T22:28:47.621Z,2.28
2022-09-27T22:31:15.702Z,2.33
2022-09-27T22:33:42.806Z,1.90
2022-09-27T22:36:09.339Z,2.20
2022-09-27T22:38:35.733Z,2.22
2022-09-27T22:41:02.662Z,1.75
2022-09-27T22:43:29.443Z,2.05
2022-09-27T22:45:56.841Z,1.80
2022-09-27T22:48:23.438Z,1.80
2022-09-27T22:50:49.814Z,1.83
2022-09-27T22:53:16.186Z,2.65
2022-09-27T22:55:42.605Z,2.38
2022-09-27T22:58:09.419Z,2.13
2022-09-27T23:00:38.048Z,2.28
2022-09-27T23:03:04.481Z,1.85
2022-09-27T23:05:30.868Z,2.30
2022-09-27T23:07:57.251Z,2.15
2022-09-27T23:10:23.626Z,2.70
2022-09-27T23:12:54.645Z,2.55
2022-09-27T23:17:51.085Z,2.58
2022-09-27T23:20:18.455Z,2.50
2022-09-27T23:22:45.275Z,2.25
2022-09-27T23:25:11.667Z,2.70
2022-09-27T23:27:47.584Z,2.30
2022-09-27T23:30:25.832Z,2.58
2022-09-27T23:32:53.390Z,2.28
2022-09-27T23:35:19.767Z,2.28
2022-09-27T23:37:46.154Z,2.22
2022-09-27T23:40:12.537Z,2.40
2022-09-27T23:42:38.918Z,2.65
2022-09-27T23:45:05.706Z,2.63
2022-09-27T23:47:33.019Z,1.92
2022-09-27T23:49:59.473Z,2.25
2022-09-27T23:52:26.326Z,2.33
2022-09-27T23:54:53.107Z,2.83
2022-09-27T23:57:19.476Z,2.33
2022-09-27T23:59:45.854Z,2.90
